createdAt,value
2018-11-06T00:01:14.326Z,6.55
2018-11-06T00:03:48.779Z,6.55
2018-11-06T00:06:18.242Z,6.58
2018-11-06T00:08:47.798Z,6.54
2018-11-06T00:11:17.251Z,6.51
2018-11-06T00:13:46.678Z,6.61
2018-11-06T00:16:16.158Z,6.55
2018-11-06T00:18:45.557Z,6.56
2018-11-06T00:21:14.951Z,6.52
2018-11-06T00:23:44.335Z,6.49
2018-11-06T00:26:13.699Z,6.43
2018-11-06T00:28:43.069Z,6.48
2018-11-06T00:31:12.550Z,6.47
2018-11-06T00:33:42.030Z,6.49
2018-11-06T00:36:11.438Z,6.51
2018-11-06T00:38:40.818Z,6.50
2018-11-06T00:41:10.192Z,6.51
2018-11-06T00:43:39.570Z,6.54
2018-11-06T00:46:08.960Z,6.52
2018-11-06T00:48:38.380Z,6.53
2018-11-06T00:51:07.834Z,6.56
2018-11-06T00:53:37.215Z,6.53
2018-11-06T00:56:06.582Z,6.64
2018-11-06T00:58:35.995Z,6.63
2018-11-06T01:01:05.523Z,6.70
2018-11-06T01:03:40.146Z,6.74
2018-11-06T01:06:09.560Z,6.78
2018-11-06T01:08:38.926Z,6.77
2018-11-06T01:11:08.325Z,6.78
2018-11-06T01:13:37.705Z,6.74
2018-11-06T01:16:07.418Z,6.75
2018-11-06T01:18:36.796Z,6.75
2018-11-06T01:21:06.502Z,6.76
2018-11-06T01:23:35.885Z,6.64
2018-11-06T01:26:05.448Z,6.70
2018-11-06T01:28:34.810Z,6.70
2018-11-06T01:31:04.203Z,6.65
2018-11-06T01:33:33.580Z,6.66
2018-11-06T01:36:03.018Z,6.65
2018-11-06T01:38:33.345Z,6.68
2018-11-06T01:41:02.723Z,6.59
2018-11-06T01:43:32.114Z,6.43
2018-11-06T01:46:01.510Z,6.58
2018-11-06T01:48:30.886Z,6.57
2018-11-06T01:51:00.293Z,6.65
2018-11-06T01:53:29.683Z,6.73
2018-11-06T01:55:59.066Z,6.76
2018-11-06T01:58:28.434Z,6.83
2018-11-06T02:00:57.918Z,6.82
2018-11-06T02:03:27.688Z,6.82
2018-11-06T02:05:57.066Z,6.86
2018-11-06T02:08:26.465Z,6.91
2018-11-06T02:10:55.822Z,6.91
2018-11-06T02:13:25.194Z,6.86
2018-11-06T02:15:54.582Z,6.87
2018-11-06T02:18:23.959Z,6.92
2018-11-06T02:20:53.359Z,6.92
2018-11-06T02:23:22.729Z,6.96
2018-11-06T02:25:52.189Z,6.92
2018-11-06T02:28:21.587Z,7.00
2018-11-06T02:30:50.967Z,6.98
2018-11-06T02:33:20.342Z,6.98
2018-11-06T02:35:49.731Z,7.04
2018-11-06T02:38:19.117Z,7.07
2018-11-06T02:40:48.499Z,7.06
2018-11-06T02:43:17.882Z,7.05
2018-11-06T02:45:47.246Z,7.10
2018-11-06T02:48:16.642Z,7.10
2018-11-06T02:50:46.037Z,7.14
2018-11-06T02:53:15.406Z,7.01
2018-11-06T02:55:44.840Z,7.08
2018-11-06T02:58:14.188Z,7.16
2018-11-06T03:00:43.550Z,7.19
2018-11-06T03:03:12.950Z,7.17
2018-11-06T03:05:42.334Z,7.20
2018-11-06T03:08:11.714Z,7.19
2018-11-06T03:10:41.098Z,7.26
2018-11-06T03:13:10.492Z,7.28
2018-11-06T03:15:39.866Z,7.31
2018-11-06T03:18:09.264Z,7.31
2018-11-06T03:20:38.671Z,7.34
2018-11-06T03:23:08.030Z,7.37
2018-11-06T03:25:37.418Z,7.40
2018-11-06T03:28:07.085Z,7.38
2018-11-06T03:30:36.472Z,7.31
2018-11-06T03:33:05.882Z,7.30
2018-11-06T03:35:35.245Z,7.23
2018-11-06T03:38:04.650Z,7.28
2018-11-06T03:40:34.018Z,7.18
2018-11-06T03:43:03.394Z,7.17
2018-11-06T03:45:32.783Z,7.21
2018-11-06T03:48:02.262Z,7.20
2018-11-06T03:50:31.634Z,7.19
2018-11-06T03:53:01.090Z,7.21
2018-11-06T03:55:30.462Z,7.28
2018-11-06T03:57:59.830Z,7.30
2018-11-06T04:00:29.219Z,7.32
2018-11-06T04:02:58.605Z,7.34
2018-11-06T04:05:27.977Z,7.29
2018-11-06T04:07:57.351Z,7.31
2018-11-06T04:10:27.770Z,7.32
2018-11-06T04:12:57.154Z,7.36
2018-11-06T04:15:27.792Z,7.10
2018-11-06T04:17:57.157Z,7.21
2018-11-06T04:20:27.935Z,7.22
2018-11-06T04:22:57.342Z,7.23
2018-11-06T04:25:27.782Z,7.23
2018-11-06T04:27:57.146Z,7.26
2018-11-06T04:30:27.778Z,7.30
2018-11-06T04:32:57.146Z,7.31
2018-11-06T04:35:27.762Z,7.35
2018-11-06T04:37:57.151Z,7.36
2018-11-06T04:40:27.766Z,7.31
2018-11-06T04:42:57.163Z,7.32
2018-11-06T04:45:27.762Z,7.07
2018-11-06T04:47:57.154Z,7.10
2018-11-06T04:50:27.845Z,7.13
2018-11-06T04:52:57.251Z,7.15
2018-11-06T04:55:27.999Z,7.14
2018-11-06T04:57:57.415Z,7.11
2018-11-06T05:00:27.807Z,7.13
2018-11-06T05:02:57.194Z,7.13
2018-11-06T05:05:27.814Z,7.12
2018-11-06T05:07:57.206Z,7.02
2018-11-06T05:10:27.806Z,6.94
2018-11-06T05:12:57.213Z,6.75
2018-11-06T05:15:27.826Z,6.73
2018-11-06T05:17:57.210Z,6.62
2018-11-06T05:20:27.916Z,6.66
2018-11-06T05:22:57.314Z,6.72
2018-11-06T05:25:27.991Z,6.82
2018-11-06T05:27:57.330Z,6.87
2018-11-06T05:30:27.953Z,6.88
2018-11-06T05:32:57.347Z,6.93
2018-11-06T05:35:27.865Z,6.95
2018-11-06T05:37:57.278Z,6.96
2018-11-06T05:40:44.751Z,6.90
2018-11-06T05:43:14.143Z,6.85
2018-11-06T05:45:43.658Z,6.85
2018-11-06T05:48:12.880Z,6.86
2018-11-06T05:50:42.354Z,6.82
2018-11-06T05:53:11.737Z,6.86
2018-11-06T05:55:41.258Z,6.86
2018-11-06T05:58:10.745Z,6.83
2018-11-06T06:00:40.580Z,6.67
2018-11-06T06:03:09.875Z,6.66
2018-11-06T06:05:39.238Z,6.56
2018-11-06T06:08:08.781Z,6.53
2018-11-06T06:10:38.178Z,6.62
2018-11-06T06:13:08.098Z,6.66
2018-11-06T06:15:37.503Z,6.71
2018-11-06T06:18:06.878Z,6.68
2018-11-06T06:20:36.282Z,6.54
2018-11-06T06:23:06.206Z,6.56
2018-11-06T06:25:35.646Z,6.56
2018-11-06T06:28:05.074Z,6.52
2018-11-06T06:30:34.478Z,6.53
2018-11-06T06:33:03.879Z,6.60
2018-11-06T06:35:33.263Z,6.61
2018-11-06T06:38:02.654Z,6.57
2018-11-06T06:40:32.134Z,6.56
2018-11-06T06:43:01.537Z,6.61
2018-11-06T06:45:30.940Z,6.56
2018-11-06T06:48:00.339Z,6.54
2018-11-06T06:50:29.748Z,6.57
2018-11-06T06:52:59.118Z,6.51
2018-11-06T06:55:28.487Z,6.51
2018-11-06T06:57:57.878Z,6.57
2018-11-06T07:00:28.146Z,6.65
2018-11-06T07:02:57.554Z,6.47
2018-11-06T07:05:28.054Z,6.28
2018-11-06T07:07:57.431Z,6.19
2018-11-06T07:10:28.061Z,6.24
2018-11-06T07:12:57.646Z,6.03
2018-11-06T07:15:28.167Z,6.08
2018-11-06T07:17:57.545Z,6.21
2018-11-06T07:20:28.266Z,6.34
2018-11-06T07:22:57.656Z,6.49
2018-11-06T07:25:28.080Z,6.57
2018-11-06T07:27:57.471Z,6.66
2018-11-06T07:30:28.080Z,6.56
2018-11-06T07:32:57.463Z,6.69
2018-11-06T07:35:28.186Z,6.75
2018-11-06T07:37:57.455Z,6.83
2018-11-06T07:40:28.114Z,6.96
2018-11-06T07:42:57.449Z,6.99
2018-11-06T07:45:28.039Z,7.07
2018-11-06T07:47:57.421Z,7.17
2018-11-06T07:50:28.092Z,7.15
2018-11-06T07:52:57.450Z,7.15
2018-11-06T07:55:28.080Z,7.08
2018-11-06T07:57:57.458Z,6.89
2018-11-06T08:00:28.060Z,6.78
2018-11-06T08:02:57.583Z,6.95
2018-11-06T08:05:28.196Z,7.00
2018-11-06T08:07:57.594Z,7.12
2018-11-06T08:10:28.126Z,7.24
2018-11-06T08:12:57.516Z,7.24
2018-11-06T08:15:28.130Z,7.26
2018-11-06T08:17:57.563Z,7.16
2018-11-06T08:20:28.329Z,7.31
2018-11-06T08:22:57.661Z,7.32
2018-11-06T08:25:28.261Z,7.44
2018-11-06T08:27:57.649Z,7.61
2018-11-06T08:30:28.146Z,7.63
2018-11-06T08:32:57.567Z,7.83
2018-11-06T08:35:28.172Z,8.05
2018-11-06T08:37:57.563Z,8.17
2018-11-06T08:40:28.155Z,8.28
2018-11-06T08:42:57.543Z,8.46
2018-11-06T08:45:28.140Z,8.57
2018-11-06T08:47:57.578Z,8.70
2018-11-06T08:50:28.158Z,8.76
2018-11-06T08:52:57.514Z,8.91
2018-11-06T08:55:28.128Z,8.99
2018-11-06T08:57:57.544Z,8.94
2018-11-06T09:00:28.152Z,9.12
2018-11-06T09:02:57.518Z,9.23
2018-11-06T09:05:28.155Z,9.18
2018-11-06T09:07:57.534Z,9.19
2018-11-06T09:10:28.154Z,9.15
2018-11-06T09:12:57.522Z,9.18
2018-11-06T09:15:28.156Z,9.07
2018-11-06T09:17:57.510Z,9.16
2018-11-06T09:20:28.384Z,9.17
2018-11-06T09:22:57.761Z,9.22
2018-11-06T09:25:28.222Z,9.29
2018-11-06T09:27:57.613Z,9.41
2018-11-06T09:30:28.244Z,9.34
2018-11-06T09:32:57.615Z,9.17
2018-11-06T09:35:28.249Z,9.26
2018-11-06T09:37:57.644Z,9.31
2018-11-06T09:42:57.622Z,8.88
2018-11-06T09:45:28.292Z,8.90
2018-11-06T09:47:57.650Z,9.05
2018-11-06T09:50:28.274Z,9.15
2018-11-06T09:52:57.630Z,9.27
2018-11-06T09:55:28.237Z,9.42
2018-11-06T09:57:57.634Z,9.59
2018-11-06T10:00:28.284Z,9.68
2018-11-06T10:02:57.694Z,9.79
2018-11-06T10:05:28.322Z,9.79
2018-11-06T10:07:57.848Z,9.76
2018-11-06T10:10:28.318Z,9.66
2018-11-06T10:12:57.708Z,9.91
2018-11-06T10:15:28.313Z,10.13
2018-11-06T10:17:57.714Z,10.26
2018-11-06T10:20:27.183Z,10.36
2018-11-06T10:22:56.551Z,10.46
2018-11-06T10:25:25.938Z,10.60
2018-11-06T10:27:55.318Z,10.82
2018-11-06T10:30:24.690Z,11.00
2018-11-06T10:32:54.070Z,11.01
2018-11-06T10:35:23.472Z,10.99
2018-11-06T10:37:52.866Z,10.97
2018-11-06T10:40:22.861Z,11.09
2018-11-06T10:42:52.346Z,11.12
2018-11-06T10:45:21.722Z,11.32
2018-11-06T10:47:51.114Z,11.51
2018-11-06T10:50:20.565Z,11.68
2018-11-06T10:52:50.191Z,11.81
2018-11-06T10:55:19.565Z,11.85
2018-11-06T10:57:48.939Z,11.88
2018-11-06T11:00:23.522Z,11.90
2018-11-06T11:02:58.294Z,12.04
2018-11-06T11:05:28.975Z,12.15
2018-11-06T11:07:58.372Z,12.22
2018-11-06T11:10:27.840Z,12.29
2018-11-06T11:12:57.184Z,12.32
2018-11-06T11:15:26.574Z,12.33
2018-11-06T11:17:56.054Z,12.21
2018-11-06T11:20:25.670Z,12.38
2018-11-06T11:22:55.068Z,12.58
2018-11-06T11:25:24.470Z,12.86
2018-11-06T11:27:53.826Z,12.87
2018-11-06T11:30:23.222Z,12.85
2018-11-06T11:32:52.618Z,12.98
2018-11-06T11:35:22.028Z,13.22
2018-11-06T11:37:51.480Z,13.41
2018-11-06T11:40:20.792Z,13.63
2018-11-06T11:42:50.179Z,13.76
2018-11-06T11:45:19.567Z,13.80
2018-11-06T11:47:48.995Z,13.98
2018-11-06T11:50:18.395Z,14.16
2018-11-06T11:52:47.779Z,14.31
2018-11-06T11:55:17.178Z,14.28
2018-11-06T11:57:46.554Z,14.24
2018-11-06T12:00:18.406Z,14.29
2018-11-06T12:02:47.810Z,14.44
2018-11-06T12:05:17.194Z,14.62
2018-11-06T12:07:46.586Z,14.85
2018-11-06T12:10:15.954Z,15.19
2018-11-06T12:12:45.354Z,15.44
2018-11-06T12:15:15.945Z,16.00
2018-11-06T12:17:46.256Z,16.52
2018-11-06T12:20:16.076Z,17.02
2018-11-06T12:22:45.492Z,17.24
2018-11-06T12:25:15.301Z,16.82
2018-11-06T12:27:44.577Z,16.85
2018-11-06T12:30:15.634Z,16.59
2018-11-06T12:32:45.112Z,16.25
2018-11-06T12:35:14.950Z,16.17
2018-11-06T12:37:44.358Z,16.17
2018-11-06T12:40:14.364Z,16.13
2018-11-06T12:42:44.026Z,16.06
2018-11-06T12:45:14.915Z,16.02
2018-11-06T12:47:44.838Z,16.01
2018-11-06T12:50:14.325Z,16.09
2018-11-06T12:52:43.728Z,16.04
2018-11-06T12:55:14.331Z,16.04
2018-11-06T12:57:43.756Z,16.11
2018-11-06T13:00:15.387Z,16.15
2018-11-06T13:02:44.787Z,16.19
2018-11-06T13:05:14.205Z,16.22
2018-11-06T13:07:44.463Z,16.22
2018-11-06T13:10:14.566Z,16.24
2018-11-06T13:12:44.306Z,16.22
2018-11-06T13:15:15.455Z,16.07
2018-11-06T13:17:43.280Z,16.13
2018-11-06T13:20:14.054Z,16.12
2018-11-06T13:22:44.208Z,16.09
2018-11-06T13:25:13.759Z,16.06
2018-11-06T13:27:43.400Z,15.98
2018-11-06T13:30:17.654Z,15.93
2018-11-06T13:32:47.690Z,15.88
2018-11-06T13:35:17.105Z,15.83
2018-11-06T13:37:46.490Z,15.80
2018-11-06T13:40:16.629Z,15.80
2018-11-06T13:42:46.610Z,15.77
2018-11-06T13:45:17.670Z,15.48
2018-11-06T13:47:46.993Z,15.39
2018-11-06T13:50:16.381Z,15.38
2018-11-06T13:52:45.751Z,15.33
2018-11-06T13:55:15.917Z,15.31
2018-11-06T13:57:46.137Z,15.30
2018-11-06T14:00:18.638Z,15.31
2018-11-06T14:02:48.025Z,15.28
2018-11-06T14:05:17.619Z,15.27
2018-11-06T14:07:47.042Z,15.17
2018-11-06T14:10:16.433Z,14.89
2018-11-06T14:12:46.138Z,14.84
2018-11-06T14:15:15.529Z,14.82
2018-11-06T14:17:44.921Z,14.56
2018-11-06T14:20:15.481Z,14.48
2018-11-06T14:22:45.290Z,14.57
2018-11-06T14:25:14.894Z,14.63
2018-11-06T14:27:44.277Z,14.69
2018-11-06T14:30:16.578Z,14.71
2018-11-06T14:32:46.490Z,14.62
2018-11-06T14:35:16.907Z,14.60
2018-11-06T14:37:46.944Z,14.70
2018-11-06T14:40:16.836Z,14.77
2018-11-06T14:42:46.600Z,14.83
2018-11-06T14:45:17.188Z,14.88
2018-11-06T14:47:46.609Z,14.91
2018-11-06T14:50:15.991Z,15.00
2018-11-06T14:52:45.371Z,15.00
2018-11-06T14:55:15.618Z,14.89
2018-11-06T14:57:44.998Z,14.82
2018-11-06T15:00:20.054Z,14.41
2018-11-06T15:02:52.741Z,14.32
2018-11-06T15:05:22.777Z,14.32
2018-11-06T15:07:52.140Z,14.34
2018-11-06T15:10:21.505Z,14.33
2018-11-06T15:12:50.981Z,14.34
2018-11-06T15:15:20.286Z,14.28
2018-11-06T15:17:49.675Z,14.23
2018-11-06T15:20:22.034Z,14.14
2018-11-06T15:22:51.434Z,14.07
2018-11-06T15:25:20.825Z,13.92
2018-11-06T15:27:50.218Z,13.82
2018-11-06T15:30:19.960Z,13.74
2018-11-06T15:32:49.464Z,13.65
2018-11-06T15:35:20.205Z,13.55
2018-11-06T15:37:49.625Z,13.43
2018-11-06T15:40:20.129Z,13.27
2018-11-06T15:42:49.562Z,13.13
2018-11-06T15:45:19.714Z,12.97
2018-11-06T15:47:49.365Z,12.85
2018-11-06T15:50:19.788Z,12.64
2018-11-06T15:52:50.101Z,12.16
2018-11-06T15:55:19.531Z,12.08
2018-11-06T15:57:48.911Z,11.99
2018-11-06T16:00:20.985Z,11.95
2018-11-06T16:02:50.478Z,11.89
2018-11-06T16:05:19.898Z,11.80
2018-11-06T16:07:49.899Z,11.55
2018-11-06T16:10:21.470Z,11.42
2018-11-06T16:12:50.942Z,11.22
2018-11-06T16:15:20.439Z,10.92
2018-11-06T16:17:49.810Z,10.74
2018-11-06T16:20:20.411Z,10.70
2018-11-06T16:22:49.894Z,10.76
2018-11-06T16:25:19.950Z,10.78
2018-11-06T16:27:49.429Z,10.71
2018-11-06T16:30:20.172Z,10.59
2018-11-06T16:32:49.633Z,10.52
2018-11-06T16:35:23.222Z,10.49
2018-11-06T16:37:52.989Z,10.33
2018-11-06T16:40:22.434Z,10.31
2018-11-06T16:42:51.800Z,10.30
2018-11-06T16:45:22.938Z,10.30
2018-11-06T16:47:52.947Z,10.27
2018-11-06T16:50:22.769Z,10.29
2018-11-06T16:52:52.168Z,10.30
2018-11-06T16:55:21.693Z,10.29
2018-11-06T16:57:51.106Z,10.25
2018-11-06T17:00:22.164Z,10.20
2018-11-06T17:02:51.634Z,10.24
2018-11-06T17:05:21.017Z,10.16
2018-11-06T17:07:50.745Z,10.00
2018-11-06T17:10:20.640Z,9.95
2018-11-06T17:12:50.033Z,9.88
2018-11-06T17:15:20.770Z,9.80
2018-11-06T17:17:51.387Z,9.47
2018-11-06T17:20:21.338Z,9.46
2018-11-06T17:22:50.773Z,9.51
2018-11-06T17:25:21.526Z,9.54
2018-11-06T17:27:51.139Z,9.58
2018-11-06T17:30:20.838Z,9.61
2018-11-06T17:32:50.426Z,9.59
2018-11-06T17:35:20.729Z,9.63
2018-11-06T17:37:50.394Z,9.59
2018-11-06T17:40:20.980Z,9.56
2018-11-06T17:42:50.510Z,9.55
2018-11-06T17:45:21.471Z,9.35
2018-11-06T17:47:51.029Z,9.32
2018-11-06T17:50:20.671Z,9.21
2018-11-06T17:52:50.276Z,9.15
2018-11-06T17:55:20.888Z,9.05
2018-11-06T17:57:50.280Z,8.99
2018-11-06T18:00:22.831Z,8.97
2018-11-06T18:02:52.440Z,8.97
2018-11-06T18:05:23.903Z,8.99
2018-11-06T18:07:53.563Z,8.94
2018-11-06T18:10:23.275Z,9.04
2018-11-06T18:12:52.958Z,9.05
2018-11-06T18:15:22.661Z,9.06
2018-11-06T18:17:52.445Z,8.90
2018-11-06T18:20:21.912Z,8.84
2018-11-06T18:22:51.488Z,8.74
2018-11-06T18:25:21.061Z,8.73
2018-11-06T18:27:50.797Z,8.75
2018-11-06T18:30:20.349Z,8.73
2018-11-06T18:32:49.908Z,8.67
2018-11-06T18:35:19.807Z,8.68
2018-11-06T18:37:49.366Z,8.64
2018-11-06T18:40:20.035Z,8.65
2018-11-06T18:42:50.571Z,8.68
2018-11-06T18:45:20.883Z,8.70
2018-11-06T18:47:50.761Z,8.54
2018-11-06T18:50:20.673Z,8.58
2018-11-06T18:52:51.053Z,8.49
2018-11-06T18:55:20.706Z,8.49
2018-11-06T18:57:50.815Z,8.48
2018-11-06T19:00:21.719Z,8.40
2018-11-06T19:02:52.408Z,8.42
2018-11-06T19:05:22.849Z,8.38
2018-11-06T19:07:52.411Z,8.40
2018-11-06T19:10:22.256Z,8.44
2018-11-06T19:12:51.760Z,8.44
2018-11-06T19:15:23.354Z,8.48
2018-11-06T19:17:52.926Z,8.41
2018-11-06T19:20:22.803Z,8.38
2018-11-06T19:22:53.285Z,8.36
2018-11-06T19:25:23.539Z,8.36
2018-11-06T19:27:54.345Z,8.36
2018-11-06T19:30:25.959Z,8.29
2018-11-06T19:32:58.232Z,8.28
2018-11-06T19:35:29.516Z,8.30
2018-11-06T19:38:01.018Z,8.29
2018-11-06T19:40:33.362Z,8.25
2018-11-06T19:43:06.052Z,8.26
2018-11-06T19:45:38.451Z,8.23
2018-11-06T19:48:10.644Z,8.09
2018-11-06T19:50:42.991Z,8.05
2018-11-06T19:53:15.228Z,8.02
2018-11-06T19:55:47.549Z,7.97
2018-11-06T19:58:20.212Z,7.79
2018-11-06T20:00:52.848Z,7.75
2018-11-06T20:03:25.344Z,7.65
2018-11-06T20:05:58.050Z,7.49
2018-11-06T20:08:31.318Z,7.50
2018-11-06T20:11:04.340Z,7.52
2018-11-06T20:13:37.206Z,7.57
2018-11-06T20:16:09.788Z,7.50
2018-11-06T20:18:42.386Z,7.47
2018-11-06T20:21:14.870Z,7.43
2018-11-06T20:23:47.513Z,7.42
2018-11-06T20:26:20.291Z,7.43
2018-11-06T20:28:52.991Z,7.44
2018-11-06T20:31:25.864Z,7.43
2018-11-06T20:33:58.299Z,7.29
2018-11-06T20:36:30.978Z,7.14
2018-11-06T20:39:03.618Z,7.14
2018-11-06T20:41:36.492Z,7.16
2018-11-06T20:44:08.853Z,7.01
2018-11-06T20:46:41.338Z,7.15
2018-11-06T20:49:14.110Z,7.13
2018-11-06T20:51:46.607Z,6.95
2018-11-06T20:54:19.353Z,6.98
2018-11-06T20:56:51.859Z,7.01
2018-11-06T20:59:24.718Z,6.98
2018-11-06T21:01:57.676Z,6.90
2018-11-06T21:04:30.022Z,6.89
2018-11-06T21:07:02.353Z,6.80
2018-11-06T21:09:34.785Z,6.75
2018-11-06T21:12:07.139Z,6.74
2018-11-06T21:14:39.612Z,6.69
2018-11-06T21:17:12.036Z,6.74
2018-11-06T21:19:44.481Z,6.72
2018-11-06T21:22:16.806Z,6.67
2018-11-06T21:24:49.254Z,6.61
2018-11-06T21:27:21.732Z,6.53
2018-11-06T21:29:53.979Z,6.52
2018-11-06T21:32:25.666Z,6.58
2018-11-06T21:34:56.476Z,6.58
2018-11-06T21:37:27.135Z,6.52
2018-11-06T21:39:57.123Z,6.61
2018-11-06T21:42:26.653Z,6.53
2018-11-06T21:44:56.161Z,6.53
2018-11-06T21:47:26.785Z,6.42
2018-11-06T21:49:56.493Z,6.33
2018-11-06T21:52:25.915Z,6.43
2018-11-06T21:54:55.386Z,6.46
2018-11-06T21:57:24.772Z,6.46
2018-11-06T21:59:54.139Z,6.34
2018-11-06T22:02:23.607Z,6.35
2018-11-06T22:04:52.990Z,6.20
2018-11-06T22:07:22.346Z,6.31
2018-11-06T22:09:51.784Z,6.29
2018-11-06T22:12:21.184Z,6.32
2018-11-06T22:14:50.524Z,6.33
2018-11-06T22:17:19.913Z,6.35
2018-11-06T22:19:49.289Z,6.38
2018-11-06T22:22:18.676Z,6.38
2018-11-06T22:24:48.062Z,6.43
2018-11-06T22:27:17.543Z,6.41
2018-11-06T22:29:47.166Z,6.45
2018-11-06T22:32:16.737Z,6.38
2018-11-06T22:34:46.269Z,6.36
2018-11-06T22:37:15.971Z,6.38
2018-11-06T22:39:45.619Z,6.39
2018-11-06T22:42:15.308Z,6.41
2018-11-06T22:44:44.842Z,6.45
2018-11-06T22:47:14.438Z,6.49
2018-11-06T22:49:44.143Z,6.57
2018-11-06T22:52:13.718Z,6.65
2018-11-06T22:54:43.338Z,6.66
2018-11-06T22:57:12.948Z,6.70
2018-11-06T22:59:42.506Z,6.69
2018-11-06T23:02:12.053Z,6.73
2018-11-06T23:04:41.692Z,6.77
2018-11-06T23:08:14.216Z,6.83
2018-11-06T23:10:43.855Z,6.81
2018-11-06T23:13:13.352Z,6.89
2018-11-06T23:15:42.878Z,6.90
2018-11-06T23:18:12.419Z,6.92
2018-11-06T23:20:41.977Z,6.83
2018-11-06T23:23:11.373Z,6.80
2018-11-06T23:25:41.007Z,6.84
2018-11-06T23:28:10.444Z,6.85
2018-11-06T23:30:39.976Z,6.88
2018-11-06T23:33:09.634Z,6.86
2018-11-06T23:35:39.180Z,6.93
2018-11-06T23:38:08.758Z,6.98
2018-11-06T23:40:38.298Z,7.09
2018-11-06T23:43:07.897Z,7.10
2018-11-06T23:45:37.454Z,7.08
2018-11-06T23:48:07.219Z,7.19
2018-11-06T23:50:36.934Z,7.22
2018-11-06T23:53:06.550Z,7.31
2018-11-06T23:55:36.219Z,7.34
2018-11-06T23:58:05.886Z,7.40
